PWSweather.com
Personal Weather Stations
Station Observations

YeovilGB

Lat: 50.949, Lon: -2.627

Elevation: 70

Station Type: Vantage Pro

http://www.yeovil-weather.me.uk/

High Low Average
Temperature 47.8°F8.8°C 30.1°F-1.1°C 38.1°F3.4°C
Dew Point 45.3°F7.4°C 29.1°F-1.6°C 36.8°F2.7°C
Winds 2.3 mph 3.7 kmh Calm Calm Calm WCalm W
Wind Gusts 4.6 mph7.4 kmh -- --
Humidity 98% 90% 95%
Pressure 30.62 in1036.9 mb 30.56 in1034.9 mb -
Precipitation 0.01 in0.3 mm - -
Hour Temp Dew Point Humidity Winds Wind Gusts Pressure Precip Precip Rate Daily Precip Total
02:00 AM 30.9°F-0.6°C 29.7°F-1.3°C 95% Calm Calm -- 30.56 in1034.9 mb - 0.00 in0.0 mm 0.00 in0.0 mm
02:10 AM 30.9°F-0.6°C 29.6°F-1.3°C 95% Calm Calm -- 30.56 in1034.9 mb - 0.00 in0.0 mm 0.00 in0.0 mm
02:20 AM 30.9°F-0.6°C 29.6°F-1.3°C 95% Calm Calm -- 30.56 in1034.9 mb - 0.00 in0.0 mm 0.00 in0.0 mm
02:30 AM 30.8°F-0.7°C 29.5°F-1.4°C 95% Calm Calm -- 30.56 in1034.9 mb - 0.00 in0.0 mm 0.00 in0.0 mm
02:40 AM 30.7°F-0.7°C 29.5°F-1.4°C 95% Calm Calm -- 30.57 in1035.2 mb - 0.00 in0.0 mm 0.00 in0.0 mm
02:50 AM 30.7°F-0.7°C 29.7°F-1.3°C 96% Calm Calm -- 30.57 in1035.2 mb - 0.00 in0.0 mm 0.00 in0.0 mm
03:00 AM 30.7°F-0.7°C 29.7°F-1.3°C 96% Calm Calm -- 30.57 in1035.2 mb - 0.00 in0.0 mm 0.00 in0.0 mm
03:10 AM 30.6°F-0.8°C 29.3°F-1.5°C 95% Calm Calm -- 30.57 in1035.2 mb - 0.00 in0.0 mm 0.00 in0.0 mm
03:20 AM 30.6°F-0.8°C 29.3°F-1.5°C 95% Calm Calm -- 30.57 in1035.2 mb - 0.00 in0.0 mm 0.00 in0.0 mm
03:30 AM 30.5°F-0.8°C 29.2°F-1.6°C 95% Calm Calm -- 30.57 in1035.2 mb - 0.00 in0.0 mm 0.00 in0.0 mm
03:40 AM 30.5°F-0.8°C 29.5°F-1.4°C 96% Calm Calm -- 30.57 in1035.2 mb - 0.00 in0.0 mm 0.00 in0.0 mm
03:50 AM 30.5°F-0.8°C 29.5°F-1.4°C 96% Calm Calm -- 30.57 in1035.2 mb - 0.00 in0.0 mm 0.00 in0.0 mm
04:00 AM 30.5°F-0.8°C 29.5°F-1.4°C 96% Calm Calm -- 30.57 in1035.2 mb - 0.00 in0.0 mm 0.00 in0.0 mm
04:10 AM 30.5°F-0.8°C 29.5°F-1.4°C 96% Calm Calm -- 30.57 in1035.2 mb - 0.00 in0.0 mm 0.00 in0.0 mm
04:20 AM 30.5°F-0.8°C 29.5°F-1.4°C 96% Calm Calm -- 30.57 in1035.2 mb - 0.00 in0.0 mm 0.00 in0.0 mm
04:30 AM 30.4°F-0.9°C 29.4°F-1.4°C 96% Calm Calm -- 30.57 in1035.2 mb - 0.00 in0.0 mm 0.00 in0.0 mm
04:40 AM 30.3°F-0.9°C 29.3°F-1.5°C 96% Calm Calm -- 30.57 in1035.2 mb - 0.00 in0.0 mm 0.00 in0.0 mm
04:50 AM 30.2°F-1.0°C 29.2°F-1.6°C 96% Calm Calm -- 30.57 in1035.2 mb - 0.00 in0.0 mm 0.00 in0.0 mm
05:00 AM 30.2°F-1.0°C 29.2°F-1.6°C 96% Calm Calm -- 30.57 in1035.2 mb - 0.00 in0.0 mm 0.00 in0.0 mm
05:10 AM 30.1°F-1.1°C 29.1°F-1.6°C 96% Calm Calm -- 30.57 in1035.2 mb - 0.00 in0.0 mm 0.00 in0.0 mm
05:20 AM 30.1°F-1.1°C 29.1°F-1.6°C 96% Calm Calm -- 30.57 in1035.2 mb - 0.00 in0.0 mm 0.00 in0.0 mm
05:30 AM 30.3°F-0.9°C 29.2°F-1.6°C 96% Calm Calm -- 30.57 in1035.2 mb - 0.00 in0.0 mm 0.00 in0.0 mm
05:40 AM 30.2°F-1.0°C 29.2°F-1.6°C 96% Calm Calm -- 30.57 in1035.2 mb - 0.00 in0.0 mm 0.00 in0.0 mm
05:50 AM 30.2°F-1.0°C 29.2°F-1.6°C 96% Calm Calm -- 30.57 in1035.2 mb - 0.00 in0.0 mm 0.00 in0.0 mm
06:00 AM 30.2°F-1.0°C 29.2°F-1.6°C 96% Calm Calm -- 30.57 in1035.2 mb - 0.00 in0.0 mm 0.00 in0.0 mm
06:10 AM 30.2°F-1.0°C 29.2°F-1.6°C 96% Calm Calm -- 30.57 in1035.2 mb - 0.00 in0.0 mm 0.00 in0.0 mm
06:20 AM 30.2°F-1.0°C 29.2°F-1.6°C 96% Calm Calm -- 30.58 in1035.6 mb - 0.00 in0.0 mm 0.00 in0.0 mm
06:30 AM 30.1°F-1.1°C 29.1°F-1.6°C 96% Calm Calm -- 30.58 in1035.6 mb - 0.00 in0.0 mm 0.00 in0.0 mm
06:40 AM 30.1°F-1.1°C 29.1°F-1.6°C 96% Calm Calm -- 30.58 in1035.6 mb - 0.00 in0.0 mm 0.00 in0.0 mm
06:50 AM 30.1°F-1.1°C 29.1°F-1.6°C 96% Calm Calm -- 30.58 in1035.6 mb - 0.00 in0.0 mm 0.00 in0.0 mm
07:00 AM 30.1°F-1.1°C 29.1°F-1.6°C 96% Calm Calm -- 30.58 in1035.6 mb - 0.00 in0.0 mm 0.00 in0.0 mm
07:10 AM 30.2°F-1.0°C 29.2°F-1.6°C 96% Calm Calm -- 30.58 in1035.6 mb - 0.00 in0.0 mm 0.00 in0.0 mm
07:20 AM 30.1°F-1.1°C 29.1°F-1.6°C 96% Calm Calm -- 30.58 in1035.6 mb - 0.00 in0.0 mm 0.00 in0.0 mm
07:30 AM 30.1°F-1.1°C 29.1°F-1.6°C 96% Calm Calm -- 30.59 in1035.9 mb - 0.00 in0.0 mm 0.00 in0.0 mm
07:40 AM 30.2°F-1.0°C 29.2°F-1.6°C 96% Calm Calm -- 30.58 in1035.6 mb - 0.00 in0.0 mm 0.00 in0.0 mm
07:50 AM 30.2°F-1.0°C 29.2°F-1.6°C 96% Calm Calm -- 30.58 in1035.6 mb - 0.00 in0.0 mm 0.00 in0.0 mm
08:00 AM 30.2°F-1.0°C 29.2°F-1.6°C 96% Calm Calm -- 30.59 in1035.9 mb - 0.00 in0.0 mm 0.00 in0.0 mm
08:10 AM 30.4°F-0.9°C 29.4°F-1.4°C 96% Calm Calm -- 30.59 in1035.9 mb - 0.00 in0.0 mm 0.00 in0.0 mm
08:20 AM 30.5°F-0.8°C 29.5°F-1.4°C 96% Calm Calm -- 30.59 in1035.9 mb - 0.00 in0.0 mm 0.00 in0.0 mm
08:30 AM 30.6°F-0.8°C 29.6°F-1.3°C 96% Calm Calm -- 30.59 in1035.9 mb - 0.00 in0.0 mm 0.00 in0.0 mm
08:40 AM 30.7°F-0.7°C 29.7°F-1.3°C 96% Calm Calm -- 30.59 in1035.9 mb - 0.00 in0.0 mm 0.00 in0.0 mm
08:50 AM 30.8°F-0.7°C 29.8°F-1.2°C 96% Calm Calm -- 30.59 in1035.9 mb - 0.00 in0.0 mm 0.00 in0.0 mm
09:00 AM 31.1°F-0.5°C 30.1°F-1.1°C 96% Calm Calm -- 30.60 in1036.2 mb - 0.00 in0.0 mm 0.00 in0.0 mm
09:10 AM 31.5°F-0.3°C 30.7°F-0.7°C 97% Calm Calm -- 30.60 in1036.2 mb - 0.00 in0.0 mm 0.00 in0.0 mm
09:20 AM 32.0°F0.0°C 31.3°F-0.4°C 97% Calm Calm -- 30.60 in1036.2 mb - 0.00 in0.0 mm 0.00 in0.0 mm
09:30 AM 32.6°F0.3°C 31.8°F-0.1°C 97% Calm Calm -- 30.61 in1036.6 mb - 0.00 in0.0 mm 0.00 in0.0 mm
09:40 AM 33.1°F0.6°C 32.3°F0.2°C 97% Calm Calm -- 30.61 in1036.6 mb - 0.00 in0.0 mm 0.00 in0.0 mm
09:50 AM 33.5°F0.8°C 32.8°F0.4°C 97% Calm Calm -- 30.61 in1036.6 mb - 0.00 in0.0 mm 0.00 in0.0 mm
10:00 AM 34.1°F1.2°C 33.3°F0.7°C 97% Calm Calm -- 30.61 in1036.6 mb - 0.00 in0.0 mm 0.00 in0.0 mm
10:10 AM 34.6°F1.4°C 33.9°F1.1°C 97% Calm Calm -- 30.62 in1036.9 mb - 0.00 in0.0 mm 0.00 in0.0 mm
10:20 AM 35.4°F1.9°C 34.6°F1.4°C 97% Calm Calm -- 30.62 in1036.9 mb - 0.00 in0.0 mm 0.00 in0.0 mm
10:30 AM 36.1°F2.3°C 35.3°F1.8°C 97% Calm Calm -- 30.62 in1036.9 mb - 0.00 in0.0 mm 0.00 in0.0 mm
10:40 AM 36.8°F2.7°C 36.0°F2.2°C 97% Calm Calm -- 30.62 in1036.9 mb - 0.00 in0.0 mm 0.00 in0.0 mm
10:50 AM 37.8°F3.2°C 37.3°F2.9°C 98% Calm Calm -- 30.62 in1036.9 mb - 0.00 in0.0 mm 0.00 in0.0 mm
11:00 AM 38.6°F3.7°C 38.1°F3.4°C 98% Calm Calm -- 30.62 in1036.9 mb - 0.00 in0.0 mm 0.00 in0.0 mm
11:10 AM 39.8°F4.3°C 39.3°F4.1°C 98% Calm Calm -- 30.62 in1036.9 mb - 0.00 in0.0 mm 0.00 in0.0 mm
11:20 AM 40.5°F4.7°C 39.9°F4.4°C 98% Calm Calm -- 30.61 in1036.6 mb - 0.00 in0.0 mm 0.00 in0.0 mm
11:30 AM 40.9°F4.9°C 40.4°F4.7°C 98% Calm Calm -- 30.61 in1036.6 mb - 0.00 in0.0 mm 0.00 in0.0 mm
11:40 AM 41.4°F5.2°C 40.6°F4.8°C 97% Calm Calm -- 30.61 in1036.6 mb - 0.00 in0.0 mm 0.00 in0.0 mm
11:50 AM 41.9°F5.5°C 41.1°F5.1°C 97% Calm Calm -- 30.61 in1036.6 mb - 0.00 in0.0 mm 0.00 in0.0 mm
12:00 PM 42.2°F5.7°C 41.4°F5.2°C 97% Calm Calm -- 30.61 in1036.6 mb - 0.00 in0.0 mm 0.00 in0.0 mm
12:10 PM 42.7°F5.9°C 41.7°F5.4°C 96% Calm Calm -- 30.60 in1036.2 mb - 0.00 in0.0 mm 0.00 in0.0 mm
12:20 PM 43.3°F6.3°C 42.3°F5.7°C 96% Calm Calm -- 30.60 in1036.2 mb - 0.00 in0.0 mm 0.00 in0.0 mm
12:30 PM 43.8°F6.6°C 42.5°F5.8°C 95% Calm Calm -- 30.60 in1036.2 mb - 0.00 in0.0 mm 0.00 in0.0 mm
12:40 PM 44.4°F6.9°C 42.8°F6.0°C 94% Calm Calm -- 30.59 in1035.9 mb - 0.00 in0.0 mm 0.00 in0.0 mm
12:50 PM 44.9°F7.2°C 43.3°F6.3°C 94% Calm Calm -- 30.59 in1035.9 mb - 0.00 in0.0 mm 0.00 in0.0 mm
01:00 PM 45.5°F7.5°C 43.6°F6.4°C 93% Calm Calm -- 30.59 in1035.9 mb - 0.00 in0.0 mm 0.00 in0.0 mm
01:10 PM 46.3°F7.9°C 44.1°F6.7°C 92% Calm Calm -- 30.59 in1035.9 mb - 0.00 in0.0 mm 0.00 in0.0 mm
01:20 PM 46.9°F8.3°C 44.4°F6.9°C 91% Calm Calm -- 30.59 in1035.9 mb - 0.00 in0.0 mm 0.00 in0.0 mm
01:30 PM 47.2°F8.4°C 44.7°F7.1°C 91% Calm Calm -- 30.59 in1035.9 mb - 0.00 in0.0 mm 0.00 in0.0 mm
01:40 PM 47.5°F8.6°C 45.0°F7.2°C 91% 1.2 mph SSW1.9 kmh SSW 3.5 mph5.6 kmh 30.58 in1035.6 mb - 0.00 in0.0 mm 0.00 in0.0 mm
01:50 PM 47.8°F8.8°C 45.3°F7.4°C 91% Calm Calm -- 30.58 in1035.6 mb - 0.00 in0.0 mm 0.00 in0.0 mm
02:00 PM 47.8°F8.8°C 45.0°F7.2°C 90% 2.3 mph SSW3.7 kmh SSW 4.6 mph7.4 kmh 30.58 in1035.6 mb - 0.00 in0.0 mm 0.00 in0.0 mm
02:10 PM 47.8°F8.8°C 45.0°F7.2°C 90% 1.2 mph SSW1.9 kmh SSW 4.6 mph7.4 kmh 30.58 in1035.6 mb - 0.00 in0.0 mm 0.00 in0.0 mm
02:30 PM 47.7°F8.7°C 45.2°F7.3°C 91% 1.2 mph S1.9 kmh S 2.3 mph3.7 kmh 30.57 in1035.2 mb - 0.00 in0.0 mm 0.00 in0.0 mm
02:40 PM 47.5°F8.6°C 44.7°F7.1°C 90% Calm Calm -- 30.57 in1035.2 mb - 0.00 in0.0 mm 0.00 in0.0 mm
02:50 PM 47.3°F8.5°C 44.8°F7.1°C 91% 1.2 mph S1.9 kmh S 4.6 mph7.4 kmh 30.57 in1035.2 mb - 0.00 in0.0 mm 0.00 in0.0 mm
03:00 PM 47.3°F8.5°C 44.8°F7.1°C 91% Calm Calm -- 30.58 in1035.6 mb - 0.00 in0.0 mm 0.00 in0.0 mm
03:10 PM 47.2°F8.4°C 44.7°F7.1°C 91% Calm Calm 3.5 mph5.6 kmh 30.58 in1035.6 mb - 0.00 in0.0 mm 0.00 in0.0 mm
03:20 PM 47.1°F8.4°C 44.9°F7.2°C 92% Calm Calm 2.3 mph3.7 kmh 30.58 in1035.6 mb - 0.00 in0.0 mm 0.00 in0.0 mm
03:30 PM 46.9°F8.3°C 44.7°F7.1°C 92% 2.3 mph SW3.7 kmh SW 3.5 mph5.6 kmh 30.59 in1035.9 mb - 0.00 in0.0 mm 0.00 in0.0 mm
03:40 PM 46.7°F8.2°C 44.5°F6.9°C 92% Calm Calm -- 30.59 in1035.9 mb - 0.00 in0.0 mm 0.00 in0.0 mm
03:50 PM 46.3°F7.9°C 44.1°F6.7°C 92% Calm Calm -- 30.58 in1035.6 mb - 0.01 in0.3 mm 0.01 in0.3 mm
04:00 PM 46.0°F7.8°C 43.8°F6.6°C 92% Calm Calm -- 30.58 in1035.6 mb - 0.00 in0.0 mm 0.01 in0.3 mm
04:10 PM 45.9°F7.7°C 44.0°F6.7°C 93% Calm Calm -- 30.59 in1035.9 mb - 0.00 in0.0 mm 0.01 in0.3 mm
04:20 PM 45.7°F7.6°C 43.8°F6.6°C 93% Calm Calm -- 30.59 in1035.9 mb - 0.00 in0.0 mm 0.01 in0.3 mm
04:30 PM 45.2°F7.3°C 43.3°F6.3°C 93% Calm Calm -- 30.60 in1036.2 mb - 0.00 in0.0 mm 0.01 in0.3 mm
04:40 PM 44.8°F7.1°C 42.9°F6.1°C 93% Calm Calm -- 30.60 in1036.2 mb - 0.00 in0.0 mm 0.01 in0.3 mm
04:50 PM 44.5°F6.9°C 42.6°F5.9°C 93% Calm Calm -- 30.60 in1036.2 mb - 0.00 in0.0 mm 0.01 in0.3 mm
05:00 PM 44.1°F6.7°C 42.2°F5.7°C 93% Calm Calm -- 30.59 in1035.9 mb - 0.00 in0.0 mm 0.01 in0.3 mm
05:10 PM 43.7°F6.5°C 41.8°F5.4°C 93% Calm Calm -- 30.59 in1035.9 mb - 0.00 in0.0 mm 0.01 in0.3 mm
05:20 PM 43.2°F6.2°C 41.3°F5.2°C 93% Calm Calm -- 30.59 in1035.9 mb - 0.00 in0.0 mm 0.01 in0.3 mm
05:30 PM 43.0°F6.1°C 41.1°F5.1°C 93% Calm Calm -- 30.59 in1035.9 mb - 0.00 in0.0 mm 0.01 in0.3 mm
05:40 PM 42.7°F5.9°C 41.1°F5.1°C 94% Calm Calm -- 30.59 in1035.9 mb - 0.00 in0.0 mm 0.01 in0.3 mm
05:50 PM 42.4°F5.8°C 40.8°F4.9°C 94% Calm Calm -- 30.59 in1035.9 mb - 0.00 in0.0 mm 0.01 in0.3 mm
06:00 PM 42.3°F5.7°C 40.7°F4.8°C 94% Calm Calm -- 30.59 in1035.9 mb - 0.00 in0.0 mm 0.01 in0.3 mm
06:10 PM 42.2°F5.7°C 40.6°F4.8°C 94% Calm Calm -- 30.59 in1035.9 mb - 0.00 in0.0 mm 0.01 in0.3 mm
06:20 PM 42.0°F5.6°C 40.4°F4.7°C 94% Calm Calm -- 30.60 in1036.2 mb - 0.00 in0.0 mm 0.01 in0.3 mm
06:30 PM 42.0°F5.6°C 40.7°F4.8°C 95% Calm Calm -- 30.59 in1035.9 mb - 0.00 in0.0 mm 0.01 in0.3 mm
06:40 PM 41.9°F5.5°C 40.6°F4.8°C 95% Calm Calm -- 30.60 in1036.2 mb - 0.00 in0.0 mm 0.01 in0.3 mm
06:50 PM 41.8°F5.4°C 40.5°F4.7°C 95% Calm Calm -- 30.59 in1035.9 mb - 0.00 in0.0 mm 0.01 in0.3 mm
07:00 PM 41.7°F5.4°C 40.4°F4.7°C 95% Calm Calm -- 30.59 in1035.9 mb - 0.00 in0.0 mm 0.01 in0.3 mm
07:10 PM 42.0°F5.6°C 40.7°F4.8°C 95% Calm Calm -- 30.60 in1036.2 mb - 0.00 in0.0 mm 0.01 in0.3 mm
07:20 PM 41.9°F5.5°C 40.5°F4.7°C 95% Calm Calm -- 30.60 in1036.2 mb - 0.00 in0.0 mm 0.01 in0.3 mm
07:30 PM 41.6°F5.3°C 40.3°F4.6°C 95% Calm Calm -- 30.60 in1036.2 mb - 0.00 in0.0 mm 0.01 in0.3 mm
07:40 PM 41.7°F5.4°C 40.4°F4.7°C 95% Calm Calm -- 30.60 in1036.2 mb - 0.00 in0.0 mm 0.01 in0.3 mm
07:50 PM 41.8°F5.4°C 40.5°F4.7°C 95% Calm Calm -- 30.61 in1036.6 mb - 0.00 in0.0 mm 0.01 in0.3 mm
08:00 PM 41.4°F5.2°C 40.1°F4.5°C 95% Calm Calm -- 30.61 in1036.6 mb - 0.00 in0.0 mm 0.01 in0.3 mm
08:10 PM 40.9°F4.9°C 39.6°F4.2°C 95% Calm Calm -- 30.61 in1036.6 mb - 0.00 in0.0 mm 0.01 in0.3 mm
08:20 PM 40.6°F4.8°C 39.3°F4.1°C 95% Calm Calm -- 30.61 in1036.6 mb - 0.00 in0.0 mm 0.01 in0.3 mm
08:30 PM 40.7°F4.8°C 39.6°F4.2°C 96% Calm Calm -- 30.60 in1036.2 mb - 0.00 in0.0 mm 0.01 in0.3 mm
08:40 PM 40.7°F4.8°C 39.6°F4.2°C 96% Calm Calm -- 30.61 in1036.6 mb - 0.00 in0.0 mm 0.01 in0.3 mm
08:50 PM 40.4°F4.7°C 39.1°F3.9°C 95% Calm Calm -- 30.60 in1036.2 mb - 0.00 in0.0 mm 0.01 in0.3 mm
09:00 PM 40.2°F4.6°C 38.9°F3.8°C 95% Calm Calm -- 30.61 in1036.6 mb - 0.00 in0.0 mm 0.01 in0.3 mm
09:10 PM 40.1°F4.5°C 39.1°F3.9°C 96% Calm Calm -- 30.60 in1036.2 mb - 0.00 in0.0 mm 0.01 in0.3 mm
09:20 PM 40.6°F4.8°C 39.5°F4.2°C 96% Calm Calm -- 30.60 in1036.2 mb - 0.00 in0.0 mm 0.01 in0.3 mm
09:30 PM 40.7°F4.8°C 39.7°F4.3°C 96% Calm Calm -- 30.60 in1036.2 mb - 0.00 in0.0 mm 0.01 in0.3 mm
09:40 PM 40.5°F4.7°C 39.2°F4.0°C 95% Calm Calm -- 30.60 in1036.2 mb - 0.00 in0.0 mm 0.01 in0.3 mm
09:50 PM 40.1°F4.5°C 38.8°F3.8°C 95% Calm Calm -- 30.60 in1036.2 mb - 0.00 in0.0 mm 0.01 in0.3 mm
10:00 PM 39.8°F4.3°C 38.5°F3.6°C 95% Calm Calm -- 30.60 in1036.2 mb - 0.00 in0.0 mm 0.01 in0.3 mm
10:10 PM 39.6°F4.2°C 38.5°F3.6°C 96% Calm Calm -- 30.60 in1036.2 mb - 0.00 in0.0 mm 0.01 in0.3 mm
10:20 PM 39.5°F4.2°C 38.5°F3.6°C 96% Calm Calm -- 30.60 in1036.2 mb - 0.00 in0.0 mm 0.01 in0.3 mm
10:30 PM 39.5°F4.2°C 38.5°F3.6°C 96% Calm Calm -- 30.60 in1036.2 mb - 0.00 in0.0 mm 0.01 in0.3 mm
10:40 PM 39.7°F4.3°C 38.6°F3.7°C 96% Calm Calm -- 30.60 in1036.2 mb - 0.00 in0.0 mm 0.01 in0.3 mm
10:50 PM 39.9°F4.4°C 38.8°F3.8°C 96% Calm Calm -- 30.60 in1036.2 mb - 0.00 in0.0 mm 0.01 in0.3 mm
11:00 PM 40.1°F4.5°C 39.1°F3.9°C 96% Calm Calm -- 30.60 in1036.2 mb - 0.00 in0.0 mm 0.01 in0.3 mm
11:10 PM 40.4°F4.7°C 39.3°F4.1°C 96% Calm Calm -- 30.60 in1036.2 mb - 0.00 in0.0 mm 0.01 in0.3 mm
11:20 PM 40.5°F4.7°C 39.4°F4.1°C 96% Calm Calm -- 30.59 in1035.9 mb - 0.00 in0.0 mm 0.01 in0.3 mm
11:30 PM 40.6°F4.8°C 39.5°F4.2°C 96% Calm Calm -- 30.59 in1035.9 mb - 0.00 in0.0 mm 0.01 in0.3 mm
11:40 PM 40.7°F4.8°C 39.6°F4.2°C 96% Calm Calm -- 30.60 in1036.2 mb - 0.00 in0.0 mm 0.01 in0.3 mm
11:50 PM 40.7°F4.8°C 39.6°F4.2°C 96% Calm Calm -- 30.59 in1035.9 mb - 0.00 in0.0 mm 0.01 in0.3 mm